sensor_id;sensor_type;location;lat;lon;timestamp;temperature;humidity
1614;DHT22;800;48.824;9.346;2022-10-17T00:01:03;22.20;60.60
1614;DHT22;800;48.824;9.346;2022-10-17T00:03:29;22.20;60.40
1614;DHT22;800;48.824;9.346;2022-10-17T00:05:55;22.20;60.90
1614;DHT22;800;48.824;9.346;2022-10-17T00:08:20;22.30;59.70
1614;DHT22;800;48.824;9.346;2022-10-17T00:10:55;22.30;59.70
1614;DHT22;800;48.824;9.346;2022-10-17T00:13:21;22.20;59.50
1614;DHT22;800;48.824;9.346;2022-10-17T00:15:47;22.00;59.60
1614;DHT22;800;48.824;9.346;2022-10-17T00:18:12;22.10;59.70
1614;DHT22;800;48.824;9.346;2022-10-17T00:20:38;22.10;59.60
1614;DHT22;800;48.824;9.346;2022-10-17T00:23:03;22.10;59.50
1614;DHT22;800;48.824;9.346;2022-10-17T00:25:29;22.10;59.80
1614;DHT22;800;48.824;9.346;2022-10-17T00:27:54;22.00;58.80
1614;DHT22;800;48.824;9.346;2022-10-17T00:30:20;21.90;58.80
1614;DHT22;800;48.824;9.346;2022-10-17T00:32:45;21.70;58.90
1614;DHT22;800;48.824;9.346;2022-10-17T00:35:11;21.20;60.50
1614;DHT22;800;48.824;9.346;2022-10-17T00:37:37;21.20;61.30
1614;DHT22;800;48.824;9.346;2022-10-17T00:40:04;21.20;60.50
1614;DHT22;800;48.824;9.346;2022-10-17T00:42:30;21.20;60.30
1614;DHT22;800;48.824;9.346;2022-10-17T00:47:30;21.00;61.10
1614;DHT22;800;48.824;9.346;2022-10-17T00:49:57;21.00;60.90
1614;DHT22;800;48.824;9.346;2022-10-17T00:52:25;21.00;60.90
1614;DHT22;800;48.824;9.346;2022-10-17T00:54:55;20.70;62.50
1614;DHT22;800;48.824;9.346;2022-10-17T00:57:22;20.50;63.30
1614;DHT22;800;48.824;9.346;2022-10-17T00:59:50;20.50;63.60
1614;DHT22;800;48.824;9.346;2022-10-17T01:02:19;20.40;63.40
1614;DHT22;800;48.824;9.346;2022-10-17T01:04:49;20.10;64.80
1614;DHT22;800;48.824;9.346;2022-10-17T01:07:15;20.10;65.30
1614;DHT22;800;48.824;9.346;2022-10-17T01:09:42;20.00;65.40
1614;DHT22;800;48.824;9.346;2022-10-17T01:12:26;20.10;65.40
1614;DHT22;800;48.824;9.346;2022-10-17T01:15:23;20.10;65.40
1614;DHT22;800;48.824;9.346;2022-10-17T01:20:47;19.60;66.60
1614;DHT22;800;48.824;9.346;2022-10-17T01:26:13;19.60;67.60
1614;DHT22;800;48.824;9.346;2022-10-17T01:31:37;19.30;68.20
1614;DHT22;800;48.824;9.346;2022-10-17T01:45:16;18.80;71.00
1614;DHT22;800;48.824;9.346;2022-10-17T01:47:46;18.90;71.30
1614;DHT22;800;48.824;9.346;2022-10-17T01:50:19;19.10;70.60
1614;DHT22;800;48.824;9.346;2022-10-17T01:52:51;19.00;70.90
1614;DHT22;800;48.824;9.346;2022-10-17T01:55:20;19.00;70.90
1614;DHT22;800;48.824;9.346;2022-10-17T01:57:54;19.00;71.00
1614;DHT22;800;48.824;9.346;2022-10-17T02:00:23;19.00;70.70
1614;DHT22;800;48.824;9.346;2022-10-17T02:03:00;18.90;71.40
1614;DHT22;800;48.824;9.346;2022-10-17T02:05:32;18.90;71.30
1614;DHT22;800;48.824;9.346;2022-10-17T02:07:59;18.80;71.00
1614;DHT22;800;48.824;9.346;2022-10-17T02:21:40;19.30;68.90
1614;DHT22;800;48.824;9.346;2022-10-17T02:29:35;19.20;67.90
1614;DHT22;800;48.824;9.346;2022-10-17T02:32:18;19.20;67.80
1614;DHT22;800;48.824;9.346;2022-10-17T02:34:49;19.40;67.90
1614;DHT22;800;48.824;9.346;2022-10-17T02:37:17;19.20;67.70
1614;DHT22;800;48.824;9.346;2022-10-17T02:39:44;19.00;68.50
1614;DHT22;800;48.824;9.346;2022-10-17T02:42:12;19.20;68.60
1614;DHT22;800;48.824;9.346;2022-10-17T02:44:41;19.30;67.40
1614;DHT22;800;48.824;9.346;2022-10-17T02:49:46;19.40;67.10
1614;DHT22;800;48.824;9.346;2022-10-17T02:52:18;19.40;66.90
1614;DHT22;800;48.824;9.346;2022-10-17T02:57:43;19.40;66.90
1614;DHT22;800;48.824;9.346;2022-10-17T03:00:12;19.30;67.20
1614;DHT22;800;48.824;9.346;2022-10-17T03:02:51;19.20;67.30
1614;DHT22;800;48.824;9.346;2022-10-17T03:05:20;19.20;67.50
1614;DHT22;800;48.824;9.346;2022-10-17T03:07:46;19.20;67.40
1614;DHT22;800;48.824;9.346;2022-10-17T03:10:12;19.20;67.60
1614;DHT22;800;48.824;9.346;2022-10-17T03:12:38;19.10;67.80
1614;DHT22;800;48.824;9.346;2022-10-17T03:15:04;18.90;68.20
1614;DHT22;800;48.824;9.346;2022-10-17T03:17:30;19.00;67.90
1614;DHT22;800;48.824;9.346;2022-10-17T03:19:56;19.20;67.70
1614;DHT22;800;48.824;9.346;2022-10-17T03:22:21;19.20;66.80
1614;DHT22;800;48.824;9.346;2022-10-17T03:24:47;19.20;66.40
1614;DHT22;800;48.824;9.346;2022-10-17T03:27:13;19.20;67.10
1614;DHT22;800;48.824;9.346;2022-10-17T03:29:38;19.30;66.70
1614;DHT22;800;48.824;9.346;2022-10-17T03:32:04;19.20;66.20
1614;DHT22;800;48.824;9.346;2022-10-17T03:34:30;19.20;66.40
1614;DHT22;800;48.824;9.346;2022-10-17T03:36:55;19.20;66.80
1614;DHT22;800;48.824;9.346;2022-10-17T03:39:21;19.20;66.30
1614;DHT22;800;48.824;9.346;2022-10-17T03:41:47;19.20;66.20
1614;DHT22;800;48.824;9.346;2022-10-17T03:44:12;19.20;66.20
1614;DHT22;800;48.824;9.346;2022-10-17T03:46:38;19.10;66.50
1614;DHT22;800;48.824;9.346;2022-10-17T03:49:03;19.10;66.60
1614;DHT22;800;48.824;9.346;2022-10-17T03:51:29;19.10;66.90
1614;DHT22;800;48.824;9.346;2022-10-17T03:53:56;19.00;66.30
1614;DHT22;800;48.824;9.346;2022-10-17T03:56:23;18.90;66.70
1614;DHT22;800;48.824;9.346;2022-10-17T03:58:49;18.60;67.90
1614;DHT22;800;48.824;9.346;2022-10-17T04:01:16;18.50;68.60
1614;DHT22;800;48.824;9.346;2022-10-17T04:03:42;18.40;69.10
1614;DHT22;800;48.824;9.346;2022-10-17T04:06:10;18.30;68.90
1614;DHT22;800;48.824;9.346;2022-10-17T04:08:36;18.10;69.50
1614;DHT22;800;48.824;9.346;2022-10-17T04:11:04;17.90;70.40
1614;DHT22;800;48.824;9.346;2022-10-17T04:13:31;18.00;70.50
1614;DHT22;800;48.824;9.346;2022-10-17T04:15:59;17.90;70.70
1614;DHT22;800;48.824;9.346;2022-10-17T04:18:25;17.80;71.70
1614;DHT22;800;48.824;9.346;2022-10-17T04:20:51;17.80;71.60
1614;DHT22;800;48.824;9.346;2022-10-17T04:23:16;17.60;72.30
1614;DHT22;800;48.824;9.346;2022-10-17T04:25:42;17.60;72.60
1614;DHT22;800;48.824;9.346;2022-10-17T04:28:08;17.70;72.30
1614;DHT22;800;48.824;9.346;2022-10-17T04:30:33;17.70;71.60
1614;DHT22;800;48.824;9.346;2022-10-17T04:32:59;17.70;71.30
1614;DHT22;800;48.824;9.346;2022-10-17T04:35:25;17.90;70.80
1614;DHT22;800;48.824;9.346;2022-10-17T04:37:50;17.90;69.60
1614;DHT22;800;48.824;9.346;2022-10-17T04:40:16;18.00;69.00
1614;DHT22;800;48.824;9.346;2022-10-17T04:42:41;18.00;69.00
1614;DHT22;800;48.824;9.346;2022-10-17T04:45:07;18.00;69.10
1614;DHT22;800;48.824;9.346;2022-10-17T04:47:33;17.90;69.40
1614;DHT22;800;48.824;9.346;2022-10-17T04:49:58;17.90;70.00
1614;DHT22;800;48.824;9.346;2022-10-17T04:52:24;17.90;70.00
1614;DHT22;800;48.824;9.346;2022-10-17T04:54:50;18.00;69.60
1614;DHT22;800;48.824;9.346;2022-10-17T04:57:16;18.00;69.30
1614;DHT22;800;48.824;9.346;2022-10-17T04:59:42;17.80;69.30
1614;DHT22;800;48.824;9.346;2022-10-17T05:02:08;17.70;70.80
1614;DHT22;800;48.824;9.346;2022-10-17T05:04:34;17.70;71.50
1614;DHT22;800;48.824;9.346;2022-10-17T05:06:59;17.80;71.80
1614;DHT22;800;48.824;9.346;2022-10-17T05:09:26;17.90;70.80
1614;DHT22;800;48.824;9.346;2022-10-17T05:11:51;18.10;70.90
1614;DHT22;800;48.824;9.346;2022-10-17T05:14:17;18.20;70.20
1614;DHT22;800;48.824;9.346;2022-10-17T05:16:43;18.20;69.70
1614;DHT22;800;48.824;9.346;2022-10-17T05:19:08;18.20;69.70
1614;DHT22;800;48.824;9.346;2022-10-17T05:21:34;18.30;69.70
1614;DHT22;800;48.824;9.346;2022-10-17T05:24:04;18.30;69.20
1614;DHT22;800;48.824;9.346;2022-10-17T05:26:30;18.40;69.30
1614;DHT22;800;48.824;9.346;2022-10-17T05:28:56;18.40;69.10
1614;DHT22;800;48.824;9.346;2022-10-17T05:31:24;18.40;68.70
1614;DHT22;800;48.824;9.346;2022-10-17T05:33:50;18.50;68.40
1614;DHT22;800;48.824;9.346;2022-10-17T05:36:16;18.50;68.00
1614;DHT22;800;48.824;9.346;2022-10-17T05:38:41;18.60;68.10
1614;DHT22;800;48.824;9.346;2022-10-17T05:41:09;18.70;67.70
1614;DHT22;800;48.824;9.346;2022-10-17T05:43:34;18.70;67.40
1614;DHT22;800;48.824;9.346;2022-10-17T05:46:04;18.70;66.60
1614;DHT22;800;48.824;9.346;2022-10-17T05:48:30;18.80;66.70
1614;DHT22;800;48.824;9.346;2022-10-17T05:51:01;18.80;66.40
1614;DHT22;800;48.824;9.346;2022-10-17T05:53:32;18.80;66.40
1614;DHT22;800;48.824;9.346;2022-10-17T05:55:59;18.70;66.50
1614;DHT22;800;48.824;9.346;2022-10-17T05:58:25;18.60;66.70
1614;DHT22;800;48.824;9.346;2022-10-17T06:00:55;18.50;67.30
1614;DHT22;800;48.824;9.346;2022-10-17T06:03:21;18.30;67.40
1614;DHT22;800;48.824;9.346;2022-10-17T06:05:46;18.30;67.90
1614;DHT22;800;48.824;9.346;2022-10-17T06:08:12;18.30;68.30
1614;DHT22;800;48.824;9.346;2022-10-17T06:10:38;18.30;68.20
1614;DHT22;800;48.824;9.346;2022-10-17T06:13:03;18.40;67.90
1614;DHT22;800;48.824;9.346;2022-10-17T06:15:29;18.50;67.60
1614;DHT22;800;48.824;9.346;2022-10-17T06:17:55;18.50;67.30
1614;DHT22;800;48.824;9.346;2022-10-17T06:20:20;18.40;67.40
1614;DHT22;800;48.824;9.346;2022-10-17T06:22:46;18.40;68.30
1614;DHT22;800;48.824;9.346;2022-10-17T06:25:11;18.40;68.20
1614;DHT22;800;48.824;9.346;2022-10-17T06:27:37;18.40;68.60
1614;DHT22;800;48.824;9.346;2022-10-17T06:30:03;18.30;68.40
1614;DHT22;800;48.824;9.346;2022-10-17T06:32:29;18.40;68.90
1614;DHT22;800;48.824;9.346;2022-10-17T06:34:54;18.50;68.60
1614;DHT22;800;48.824;9.346;2022-10-17T06:37:20;18.50;68.30
1614;DHT22;800;48.824;9.346;2022-10-17T06:39:45;18.30;69.00
1614;DHT22;800;48.824;9.346;2022-10-17T06:42:11;18.30;69.50
1614;DHT22;800;48.824;9.346;2022-10-17T06:44:36;18.30;69.80
1614;DHT22;800;48.824;9.346;2022-10-17T06:47:04;18.30;69.60
1614;DHT22;800;48.824;9.346;2022-10-17T06:49:29;18.30;69.70
1614;DHT22;800;48.824;9.346;2022-10-17T06:51:56;18.30;70.00
1614;DHT22;800;48.824;9.346;2022-10-17T06:54:22;18.20;70.50
1614;DHT22;800;48.824;9.346;2022-10-17T06:56:47;18.20;70.50
1614;DHT22;800;48.824;9.346;2022-10-17T06:59:13;18.20;70.70
1614;DHT22;800;48.824;9.346;2022-10-17T07:01:40;18.40;70.10
1614;DHT22;800;48.824;9.346;2022-10-17T07:04:05;18.60;70.10
1614;DHT22;800;48.824;9.346;2022-10-17T07:06:31;18.50;69.30
1614;DHT22;800;48.824;9.346;2022-10-17T07:08:56;18.60;69.90
1614;DHT22;800;48.824;9.346;2022-10-17T07:11:22;18.70;68.80
1614;DHT22;800;48.824;9.346;2022-10-17T07:13:49;18.80;68.60
1614;DHT22;800;48.824;9.346;2022-10-17T07:16:15;18.90;67.90
1614;DHT22;800;48.824;9.346;2022-10-17T07:18:41;19.00;68.70
1614;DHT22;800;48.824;9.346;2022-10-17T07:21:08;19.00;68.00
1614;DHT22;800;48.824;9.346;2022-10-17T07:23:35;19.00;68.00
1614;DHT22;800;48.824;9.346;2022-10-17T07:26:03;19.20;67.90
1614;DHT22;800;48.824;9.346;2022-10-17T07:28:33;19.40;67.70
1614;DHT22;800;48.824;9.346;2022-10-17T07:31:07;19.50;67.60
1614;DHT22;800;48.824;9.346;2022-10-17T07:33:33;19.60;67.30
1614;DHT22;800;48.824;9.346;2022-10-17T07:35:59;19.80;66.30
1614;DHT22;800;48.824;9.346;2022-10-17T07:38:26;19.90;65.80
1614;DHT22;800;48.824;9.346;2022-10-17T07:41:00;20.10;65.90
1614;DHT22;800;48.824;9.346;2022-10-17T07:43:26;20.20;65.60
1614;DHT22;800;48.824;9.346;2022-10-17T07:45:52;20.30;65.30
1614;DHT22;800;48.824;9.346;2022-10-17T07:48:18;20.50;64.00
1614;DHT22;800;48.824;9.346;2022-10-17T07:50:44;20.50;63.70
1614;DHT22;800;48.824;9.346;2022-10-17T07:53:10;20.20;64.60
1614;DHT22;800;48.824;9.346;2022-10-17T07:55:39;20.00;64.70
1614;DHT22;800;48.824;9.346;2022-10-17T07:58:07;19.90;65.80
1614;DHT22;800;48.824;9.346;2022-10-17T08:00:33;20.10;65.70
1614;DHT22;800;48.824;9.346;2022-10-17T08:02:59;20.20;64.80
1614;DHT22;800;48.824;9.346;2022-10-17T08:05:24;20.50;65.00
1614;DHT22;800;48.824;9.346;2022-10-17T08:07:50;20.50;64.40
1614;DHT22;800;48.824;9.346;2022-10-17T08:10:16;20.90;64.20
1614;DHT22;800;48.824;9.346;2022-10-17T08:12:42;21.30;63.00
1614;DHT22;800;48.824;9.346;2022-10-17T08:15:08;21.40;61.70
1614;DHT22;800;48.824;9.346;2022-10-17T08:17:35;21.30;60.70
1614;DHT22;800;48.824;9.346;2022-10-17T08:20:01;21.30;61.30
1614;DHT22;800;48.824;9.346;2022-10-17T08:22:27;21.40;61.30
1614;DHT22;800;48.824;9.346;2022-10-17T08:24:52;21.50;61.40
1614;DHT22;800;48.824;9.346;2022-10-17T08:27:18;21.40;61.60
1614;DHT22;800;48.824;9.346;2022-10-17T08:29:48;21.60;61.70
1614;DHT22;800;48.824;9.346;2022-10-17T08:32:20;21.90;60.30
1614;DHT22;800;48.824;9.346;2022-10-17T08:34:47;22.00;59.60
1614;DHT22;800;48.824;9.346;2022-10-17T08:37:14;22.20;59.10
1614;DHT22;800;48.824;9.346;2022-10-17T08:39:40;22.50;59.30
1614;DHT22;800;48.824;9.346;2022-10-17T08:42:25;22.70;58.70
1614;DHT22;800;48.824;9.346;2022-10-17T08:47:40;22.90;57.50
1614;DHT22;800;48.824;9.346;2022-10-17T08:50:15;23.10;57.30
1614;DHT22;800;48.824;9.346;2022-10-17T08:52:51;23.10;56.70
1614;DHT22;800;48.824;9.346;2022-10-17T08:55:37;22.90;57.10
1614;DHT22;800;48.824;9.346;2022-10-17T08:58:21;22.80;57.70
1614;DHT22;800;48.824;9.346;2022-10-17T09:03:41;23.10;57.50
1614;DHT22;800;48.824;9.346;2022-10-17T09:06:17;23.30;57.20
1614;DHT22;800;48.824;9.346;2022-10-17T09:14:35;24.10;56.00
1614;DHT22;800;48.824;9.346;2022-10-17T09:20:03;24.70;55.00
1614;DHT22;800;48.824;9.346;2022-10-17T09:22:38;24.70;55.10
1614;DHT22;800;48.824;9.346;2022-10-17T09:25:10;24.90;54.50
1614;DHT22;800;48.824;9.346;2022-10-17T09:27:47;25.00;54.50
1614;DHT22;800;48.824;9.346;2022-10-17T09:33:07;25.00;53.30
1614;DHT22;800;48.824;9.346;2022-10-17T09:35:33;25.10;53.40
1614;DHT22;800;48.824;9.346;2022-10-17T09:38:00;24.90;53.30
1614;DHT22;800;48.824;9.346;2022-10-17T09:40:31;25.00;53.50
1614;DHT22;800;48.824;9.346;2022-10-17T09:43:00;25.00;53.60
1614;DHT22;800;48.824;9.346;2022-10-17T09:45:28;25.00;53.80
1614;DHT22;800;48.824;9.346;2022-10-17T09:48:19;25.00;53.50
1614;DHT22;800;48.824;9.346;2022-10-17T09:50:46;25.00;54.10
1614;DHT22;800;48.824;9.346;2022-10-17T09:53:17;25.20;53.60
1614;DHT22;800;48.824;9.346;2022-10-17T09:55:50;25.30;53.20
1614;DHT22;800;48.824;9.346;2022-10-17T09:58:19;25.40;52.70
1614;DHT22;800;48.824;9.346;2022-10-17T10:00:46;25.60;53.40
1614;DHT22;800;48.824;9.346;2022-10-17T10:03:14;25.60;52.10
1614;DHT22;800;48.824;9.346;2022-10-17T10:05:41;25.80;52.10
1614;DHT22;800;48.824;9.346;2022-10-17T10:08:18;26.10;51.80
1614;DHT22;800;48.824;9.346;2022-10-17T10:10:44;26.20;51.50
1614;DHT22;800;48.824;9.346;2022-10-17T10:15:49;26.30;50.70
1614;DHT22;800;48.824;9.346;2022-10-17T10:23:32;26.60;50.30
1614;DHT22;800;48.824;9.346;2022-10-17T10:26:01;26.50;49.90
1614;DHT22;800;48.824;9.346;2022-10-17T10:28:30;26.80;49.60
1614;DHT22;800;48.824;9.346;2022-10-17T10:30:58;26.80;49.60
1614;DHT22;800;48.824;9.346;2022-10-17T10:33:27;26.80;49.90
1614;DHT22;800;48.824;9.346;2022-10-17T10:36:02;27.10;49.50
1614;DHT22;800;48.824;9.346;2022-10-17T10:38:31;27.30;48.80
1614;DHT22;800;48.824;9.346;2022-10-17T10:41:05;27.60;46.70
1614;DHT22;800;48.824;9.346;2022-10-17T10:45:58;28.00;46.70
1614;DHT22;800;48.824;9.346;2022-10-17T10:48:26;28.20;45.10
1614;DHT22;800;48.824;9.346;2022-10-17T10:53:40;28.30;45.70
1614;DHT22;800;48.824;9.346;2022-10-17T10:56:27;28.10;44.70
1614;DHT22;800;48.824;9.346;2022-10-17T11:01:55;28.20;46.30
1614;DHT22;800;48.824;9.346;2022-10-17T11:04:47;28.50;46.70
1614;DHT22;800;48.824;9.346;2022-10-17T11:07:27;28.70;45.60
1614;DHT22;800;48.824;9.346;2022-10-17T11:12:33;28.90;44.50
1614;DHT22;800;48.824;9.346;2022-10-17T11:17:56;29.10;44.40
1614;DHT22;800;48.824;9.346;2022-10-17T11:20:38;29.20;44.00
1614;DHT22;800;48.824;9.346;2022-10-17T11:25:45;29.50;43.40
1614;DHT22;800;48.824;9.346;2022-10-17T11:28:20;29.60;42.30
1614;DHT22;800;48.824;9.346;2022-10-17T11:30:54;29.70;42.40
1614;DHT22;800;48.824;9.346;2022-10-17T11:36:05;29.70;42.30
1614;DHT22;800;48.824;9.346;2022-10-17T11:41:31;29.80;42.10
1614;DHT22;800;48.824;9.346;2022-10-17T11:44:17;29.70;42.40
1614;DHT22;800;48.824;9.346;2022-10-17T11:46:46;29.90;43.10
1614;DHT22;800;48.824;9.346;2022-10-17T11:49:19;30.10;41.50
1614;DHT22;800;48.824;9.346;2022-10-17T11:57:29;30.40;41.70
1614;DHT22;800;48.824;9.346;2022-10-17T11:59:52;30.50;40.80
1614;DHT22;800;48.824;9.346;2022-10-17T12:05:39;30.70;40.90
1614;DHT22;800;48.824;9.346;2022-10-17T12:08:12;30.70;40.00
1614;DHT22;800;48.824;9.346;2022-10-17T12:18:51;31.30;38.80
1614;DHT22;800;48.824;9.346;2022-10-17T12:22:16;31.30;39.40
1614;DHT22;800;48.824;9.346;2022-10-17T12:24:57;31.40;39.50
1614;DHT22;800;48.824;9.346;2022-10-17T12:27:39;31.50;39.90
1614;DHT22;800;48.824;9.346;2022-10-17T12:32:36;31.60;37.20
1614;DHT22;800;48.824;9.346;2022-10-17T12:35:03;31.50;37.10
1614;DHT22;800;48.824;9.346;2022-10-17T12:45:55;31.50;36.30
1614;DHT22;800;48.824;9.346;2022-10-17T12:51:16;31.50;35.50
1614;DHT22;800;48.824;9.346;2022-10-17T12:56:20;31.30;35.70
1614;DHT22;800;48.824;9.346;2022-10-17T12:58:50;31.30;35.10
1614;DHT22;800;48.824;9.346;2022-10-17T13:01:30;31.30;35.40
1614;DHT22;800;48.824;9.346;2022-10-17T13:03:57;31.40;36.10
1614;DHT22;800;48.824;9.346;2022-10-17T13:06:30;31.50;36.30
1614;DHT22;800;48.824;9.346;2022-10-17T13:09:03;31.30;35.70
1614;DHT22;800;48.824;9.346;2022-10-17T13:11:31;31.20;36.00
1614;DHT22;800;48.824;9.346;2022-10-17T13:13:59;31.20;36.20
1614;DHT22;800;48.824;9.346;2022-10-17T13:18:58;31.50;35.60
1614;DHT22;800;48.824;9.346;2022-10-17T13:21:24;31.50;35.30
1614;DHT22;800;48.824;9.346;2022-10-17T13:23:50;31.50;36.30
1614;DHT22;800;48.824;9.346;2022-10-17T13:26:25;31.70;37.60
1614;DHT22;800;48.824;9.346;2022-10-17T13:31:34;31.70;39.00
1614;DHT22;800;48.824;9.346;2022-10-17T13:34:02;31.60;39.40
1614;DHT22;800;48.824;9.346;2022-10-17T13:36:29;31.70;39.80
1614;DHT22;800;48.824;9.346;2022-10-17T13:38:58;31.60;39.70
1614;DHT22;800;48.824;9.346;2022-10-17T13:41:27;31.50;39.60
1614;DHT22;800;48.824;9.346;2022-10-17T13:43:53;31.50;39.60
1614;DHT22;800;48.824;9.346;2022-10-17T13:46:32;31.20;40.10
1614;DHT22;800;48.824;9.346;2022-10-17T13:48:59;31.00;40.10
1614;DHT22;800;48.824;9.346;2022-10-17T13:51:33;31.00;40.30
1614;DHT22;800;48.824;9.346;2022-10-17T13:53:59;31.10;40.30
1614;DHT22;800;48.824;9.346;2022-10-17T13:56:26;31.10;39.80
1614;DHT22;800;48.824;9.346;2022-10-17T13:58:55;31.20;39.80
1614;DHT22;800;48.824;9.346;2022-10-17T14:01:26;31.20;40.50
1614;DHT22;800;48.824;9.346;2022-10-17T14:03:53;31.30;40.00
1614;DHT22;800;48.824;9.346;2022-10-17T14:06:28;31.20;40.10
1614;DHT22;800;48.824;9.346;2022-10-17T14:09:01;31.20;40.20
1614;DHT22;800;48.824;9.346;2022-10-17T14:11:39;31.20;40.70
1614;DHT22;800;48.824;9.346;2022-10-17T14:14:15;31.30;40.40
1614;DHT22;800;48.824;9.346;2022-10-17T14:16:42;31.30;39.90
1614;DHT22;800;48.824;9.346;2022-10-17T14:19:31;31.20;39.50
1614;DHT22;800;48.824;9.346;2022-10-17T14:22:26;31.10;40.10
1614;DHT22;800;48.824;9.346;2022-10-17T14:24:52;31.00;40.40
1614;DHT22;800;48.824;9.346;2022-10-17T14:27:31;31.10;40.40
1614;DHT22;800;48.824;9.346;2022-10-17T14:30:00;31.30;40.00
1614;DHT22;800;48.824;9.346;2022-10-17T14:32:33;31.40;39.80
1614;DHT22;800;48.824;9.346;2022-10-17T14:35:01;31.50;39.60
1614;DHT22;800;48.824;9.346;2022-10-17T14:37:38;31.50;39.90
1614;DHT22;800;48.824;9.346;2022-10-17T14:40:06;31.60;40.70
1614;DHT22;800;48.824;9.346;2022-10-17T14:42:38;31.60;39.70
1614;DHT22;800;48.824;9.346;2022-10-17T14:45:07;31.70;40.00
1614;DHT22;800;48.824;9.346;2022-10-17T14:47:33;31.60;39.20
1614;DHT22;800;48.824;9.346;2022-10-17T14:50:19;31.70;39.30
1614;DHT22;800;48.824;9.346;2022-10-17T14:53:20;31.80;38.90
1614;DHT22;800;48.824;9.346;2022-10-17T14:55:59;31.70;39.30
1614;DHT22;800;48.824;9.346;2022-10-17T14:58:27;31.60;39.80
1614;DHT22;800;48.824;9.346;2022-10-17T15:00:54;31.50;39.90
1614;DHT22;800;48.824;9.346;2022-10-17T15:03:20;31.60;39.60
1614;DHT22;800;48.824;9.346;2022-10-17T15:05:47;31.50;39.80
1614;DHT22;800;48.824;9.346;2022-10-17T15:08:18;31.50;39.70
1614;DHT22;800;48.824;9.346;2022-10-17T15:10:45;31.30;39.90
1614;DHT22;800;48.824;9.346;2022-10-17T15:13:12;31.30;39.80
1614;DHT22;800;48.824;9.346;2022-10-17T15:15:38;31.40;39.80
1614;DHT22;800;48.824;9.346;2022-10-17T15:18:05;31.30;39.90
1614;DHT22;800;48.824;9.346;2022-10-17T15:20:31;31.40;40.30
1614;DHT22;800;48.824;9.346;2022-10-17T15:23:00;31.40;40.40
1614;DHT22;800;48.824;9.346;2022-10-17T15:25:27;31.40;40.60
1614;DHT22;800;48.824;9.346;2022-10-17T15:27:53;31.40;40.90
1614;DHT22;800;48.824;9.346;2022-10-17T15:30:31;31.40;41.20
1614;DHT22;800;48.824;9.346;2022-10-17T15:32:58;31.40;41.30
1614;DHT22;800;48.824;9.346;2022-10-17T15:35:25;31.40;41.30
1614;DHT22;800;48.824;9.346;2022-10-17T15:37:51;31.50;41.40
1614;DHT22;800;48.824;9.346;2022-10-17T15:40:24;31.50;41.40
1614;DHT22;800;48.824;9.346;2022-10-17T15:42:50;31.50;41.40
1614;DHT22;800;48.824;9.346;2022-10-17T15:45:18;31.40;40.90
1614;DHT22;800;48.824;9.346;2022-10-17T15:47:51;31.30;41.50
1614;DHT22;800;48.824;9.346;2022-10-17T15:50:17;31.20;41.80
1614;DHT22;800;48.824;9.346;2022-10-17T15:52:43;31.10;41.50
1614;DHT22;800;48.824;9.346;2022-10-17T15:55:09;31.00;41.80
1614;DHT22;800;48.824;9.346;2022-10-17T15:57:38;30.90;42.00
1614;DHT22;800;48.824;9.346;2022-10-17T16:00:07;30.90;42.40
1614;DHT22;800;48.824;9.346;2022-10-17T16:02:37;30.80;42.40
1614;DHT22;800;48.824;9.346;2022-10-17T16:05:29;30.70;42.70
1614;DHT22;800;48.824;9.346;2022-10-17T16:07:55;30.70;43.00
1614;DHT22;800;48.824;9.346;2022-10-17T16:10:22;30.60;42.90
1614;DHT22;800;48.824;9.346;2022-10-17T16:12:48;30.50;43.10
1614;DHT22;800;48.824;9.346;2022-10-17T16:15:25;30.40;43.50
1614;DHT22;800;48.824;9.346;2022-10-17T16:17:51;30.30;43.70
1614;DHT22;800;48.824;9.346;2022-10-17T16:20:18;30.30;44.00
1614;DHT22;800;48.824;9.346;2022-10-17T16:22:44;30.10;44.00
1614;DHT22;800;48.824;9.346;2022-10-17T16:25:23;30.00;43.70
1614;DHT22;800;48.824;9.346;2022-10-17T16:27:51;30.00;44.30
1614;DHT22;800;48.824;9.346;2022-10-17T16:30:17;29.90;44.60
1614;DHT22;800;48.824;9.346;2022-10-17T16:32:43;29.80;44.80
1614;DHT22;800;48.824;9.346;2022-10-17T16:35:13;29.70;45.00
1614;DHT22;800;48.824;9.346;2022-10-17T16:37:40;29.70;45.20
1614;DHT22;800;48.824;9.346;2022-10-17T16:40:06;29.60;45.10
1614;DHT22;800;48.824;9.346;2022-10-17T16:42:32;29.60;45.10
1614;DHT22;800;48.824;9.346;2022-10-17T16:44:57;29.50;45.10
1614;DHT22;800;48.824;9.346;2022-10-17T16:47:23;29.40;45.20
1614;DHT22;800;48.824;9.346;2022-10-17T16:49:48;29.40;45.30
1614;DHT22;800;48.824;9.346;2022-10-17T16:52:14;29.20;45.70
1614;DHT22;800;48.824;9.346;2022-10-17T16:54:39;29.10;46.10
1614;DHT22;800;48.824;9.346;2022-10-17T16:57:05;29.00;46.30
1614;DHT22;800;48.824;9.346;2022-10-17T16:59:31;28.90;46.50
1614;DHT22;800;48.824;9.346;2022-10-17T17:01:56;28.80;46.90
1614;DHT22;800;48.824;9.346;2022-10-17T17:04:22;28.70;47.00
1614;DHT22;800;48.824;9.346;2022-10-17T17:06:48;28.70;47.20
1614;DHT22;800;48.824;9.346;2022-10-17T17:09:13;28.60;47.20
1614;DHT22;800;48.824;9.346;2022-10-17T17:11:39;28.60;47.20
1614;DHT22;800;48.824;9.346;2022-10-17T17:14:06;28.50;47.30
1614;DHT22;800;48.824;9.346;2022-10-17T17:16:33;28.40;47.50
1614;DHT22;800;48.824;9.346;2022-10-17T17:19:05;28.40;47.80
1614;DHT22;800;48.824;9.346;2022-10-17T17:21:32;28.30;47.90
1614;DHT22;800;48.824;9.346;2022-10-17T17:23:59;28.20;48.10
1614;DHT22;800;48.824;9.346;2022-10-17T17:26:28;28.10;48.50
1614;DHT22;800;48.824;9.346;2022-10-17T17:28:56;28.00;48.60
1614;DHT22;800;48.824;9.346;2022-10-17T17:31:24;28.00;48.80
1614;DHT22;800;48.824;9.346;2022-10-17T17:33:51;28.00;49.00
1614;DHT22;800;48.824;9.346;2022-10-17T17:36:40;27.90;49.10
1614;DHT22;800;48.824;9.346;2022-10-17T17:39:07;27.90;49.30
1614;DHT22;800;48.824;9.346;2022-10-17T17:41:33;27.80;49.40
1614;DHT22;800;48.824;9.346;2022-10-17T17:44:00;27.80;49.60
1614;DHT22;800;48.824;9.346;2022-10-17T17:46:26;27.70;49.60
1614;DHT22;800;48.824;9.346;2022-10-17T17:48:53;27.70;49.70
1614;DHT22;800;48.824;9.346;2022-10-17T17:51:21;27.70;49.90
1614;DHT22;800;48.824;9.346;2022-10-17T17:53:47;27.60;49.80
1614;DHT22;800;48.824;9.346;2022-10-17T17:56:20;27.50;50.00
1614;DHT22;800;48.824;9.346;2022-10-17T17:58:47;27.40;50.40
1614;DHT22;800;48.824;9.346;2022-10-17T18:01:20;27.30;50.60
1614;DHT22;800;48.824;9.346;2022-10-17T18:03:47;27.20;50.80
1614;DHT22;800;48.824;9.346;2022-10-17T18:06:14;27.10;51.00
1614;DHT22;800;48.824;9.346;2022-10-17T18:08:43;27.10;51.30
1614;DHT22;800;48.824;9.346;2022-10-17T18:11:09;27.10;51.30
1614;DHT22;800;48.824;9.346;2022-10-17T18:13:34;27.00;51.40
1614;DHT22;800;48.824;9.346;2022-10-17T18:16:00;27.00;51.50
1614;DHT22;800;48.824;9.346;2022-10-17T18:18:27;26.90;51.50
1614;DHT22;800;48.824;9.346;2022-10-17T18:20:53;26.90;51.60
1614;DHT22;800;48.824;9.346;2022-10-17T18:23:22;26.90;51.60
1614;DHT22;800;48.824;9.346;2022-10-17T18:25:55;26.80;51.50
1614;DHT22;800;48.824;9.346;2022-10-17T18:28:21;26.70;51.70
1614;DHT22;800;48.824;9.346;2022-10-17T18:30:47;26.70;51.90
1614;DHT22;800;48.824;9.346;2022-10-17T18:33:13;26.60;52.30
1614;DHT22;800;48.824;9.346;2022-10-17T18:35:38;26.50;53.00
1614;DHT22;800;48.824;9.346;2022-10-17T18:38:04;26.50;52.60